»·PEaware :: N2070X KBFI-KPDX

N2070X :: KBFI-KPDX

FLIGHT INFORMATION

Flight Status: Arrived
Operator: Privately registered:
United States
More flights under this callsign
Pilot: Roger K. (8372)
Aircraft: Unknown
(CE T)
More flights by this aircraft type
Origin: KBFI Boeing Field/King Co Intl
United States
Destination: KPDX Portland Intl
United States
More flights between these airports :: More routes between these airports
Route: +CBAIN1 OLM V287 BTG
File this flight plan on PilotEdge
Remarks: +CW / ILS RWY 10L
Altitude:
(Current/Filed)
8,000ft
Speed:
(Current/Filed)
120kts
Departed: 13-Feb-19 09:42 PM
Arrived: 13-Feb-19 10:54 PM
Distance/Time
Traveled:
117nm/1:12
Distance/Time
To Go:
Arrived

Flight Plot

Page will automatically refresh every two minutes.

Flight plan parsing failed; only flown route is shown


Map Options




Map Legend


Flown Route
Filed Route
Departure Airport
Arrival Airport
Navaid (VOR, NDB)
Fix

Horizontal Profiles

Position Reports

Time Latitude Longitude Heading Altitude Ground
Speed
13-Feb-19 21:09 47.527781 -122.297243 296 22ft 0kts
13-Feb-19 21:10 47.527781 -122.297243 296 22ft 0kts
13-Feb-19 21:11 47.527781 -122.297243 296 22ft 0kts
13-Feb-19 21:12 47.527781 -122.297243 296 22ft 0kts
13-Feb-19 21:14 47.527781 -122.297243 296 22ft 0kts
13-Feb-19 21:15 47.527781 -122.297243 296 22ft 0kts
13-Feb-19 21:16 47.527781 -122.297243 296 22ft 0kts
13-Feb-19 21:17 47.527781 -122.297243 296 22ft 0kts
13-Feb-19 21:18 47.527781 -122.297243 296 22ft 0kts
13-Feb-19 21:19 47.527781 -122.297243 296 22ft 0kts
13-Feb-19 21:20 47.527781 -122.297243 296 22ft 0kts
13-Feb-19 21:21 47.527781 -122.297243 296 22ft 0kts
13-Feb-19 21:22 47.527781 -122.297243 296 22ft 0kts
13-Feb-19 21:23 47.527781 -122.297243 296 22ft 0kts
13-Feb-19 21:24 47.527781 -122.297243 296 22ft 0kts
13-Feb-19 21:25 47.527781 -122.297243 296 22ft 0kts
13-Feb-19 21:26 47.527781 -122.297243 296 22ft 0kts
13-Feb-19 21:27 47.527781 -122.297243 296 22ft 0kts
13-Feb-19 21:28 47.527781 -122.297243 296 22ft 0kts
13-Feb-19 21:29 47.527781 -122.297243 296 22ft 0kts
13-Feb-19 21:29 47.527781 -122.297243 296 22ft 0kts
13-Feb-19 21:31 47.527781 -122.297243 296 22ft 0kts
13-Feb-19 21:32 47.527781 -122.297243 296 22ft 0kts
13-Feb-19 21:33 47.527781 -122.297243 296 22ft 0kts
13-Feb-19 21:33 47.527461 -122.297873 170 22ft 7kts
13-Feb-19 21:35 47.525256 -122.296887 146 22ft 7kts
13-Feb-19 21:36 47.524048 -122.295848 147 22ft 9kts
13-Feb-19 21:36 47.521546 -122.293697 149 22ft 14kts
13-Feb-19 21:37 47.519934 -122.292303 148 22ft 6kts
13-Feb-19 21:39 47.519644 -122.292111 168 22ft 0kts
13-Feb-19 21:39 47.519644 -122.292111 168 22ft 0kts
13-Feb-19 21:40 47.519068 -122.293129 318 22ft 6kts
13-Feb-19 21:41 47.536315 -122.307552 329 529ft 97kts
13-Feb-19 21:42 47.557775 -122.334240 319 1581ft 104kts
13-Feb-19 21:43 47.580806 -122.365750 305 2100ft 136kts
13-Feb-19 21:44 47.560547 -122.407949 197 2292ft 134kts
13-Feb-19 21:45 47.525500 -122.414806 193 2780ft 124kts
13-Feb-19 21:46 47.492691 -122.424746 171 3107ft 134kts
13-Feb-19 21:47 47.454177 -122.438118 184 2713ft 153kts
13-Feb-19 21:48 47.414692 -122.441547 183 2942ft 148kts
13-Feb-19 21:49 47.375629 -122.428879 170 2938ft 150kts
13-Feb-19 21:50 47.335779 -122.439213 157 2937ft 149kts
13-Feb-19 21:51 47.301505 -122.408821 127 2940ft 146kts
13-Feb-19 21:52 47.268815 -122.426933 232 3217ft 143kts
13-Feb-19 21:53 47.243031 -122.471688 232 3708ft 143kts
13-Feb-19 21:54 47.211637 -122.505285 232 4184ft 144kts
13-Feb-19 21:55 47.185666 -122.550185 232 4683ft 144kts
13-Feb-19 21:56 47.159527 -122.595460 232 5178ft 145kts
13-Feb-19 21:57 47.133411 -122.640763 232 5695ft 144kts
13-Feb-19 21:58 47.107726 -122.685494 232 6292ft 142kts
13-Feb-19 21:59 47.082362 -122.729982 231 6882ft 142kts
13-Feb-19 22:00 47.052694 -122.765899 222 7469ft 142kts
13-Feb-19 22:01 47.030240 -122.813379 232 7965ft 149kts
13-Feb-19 22:02 47.003966 -122.865335 220 7964ft 162kts
13-Feb-19 22:03 46.967436 -122.895808 169 7959ft 148kts
13-Feb-19 22:04 46.930450 -122.892706 166 7961ft 124kts
13-Feb-19 22:05 46.897341 -122.886349 161 7959ft 117kts
13-Feb-19 22:06 46.865526 -122.878425 161 7965ft 118kts
13-Feb-19 22:07 46.830159 -122.868887 162 7962ft 136kts
13-Feb-19 22:08 46.792297 -122.858924 162 7961ft 137kts
13-Feb-19 22:09 46.755595 -122.849589 162 7961ft 133kts
13-Feb-19 22:10 46.719278 -122.840282 161 7962ft 132kts
13-Feb-19 22:11 46.683093 -122.830985 162 7962ft 132kts
13-Feb-19 22:12 46.646264 -122.821503 162 8033ft 131kts
13-Feb-19 22:13 46.609615 -122.812123 162 8043ft 136kts
13-Feb-19 22:14 46.572229 -122.802508 162 8041ft 137kts
13-Feb-19 22:15 46.565449 -122.800761 161 8042ft 137kts
13-Feb-19 22:16 46.554231 -122.797899 161 8041ft 137kts
13-Feb-19 22:17 46.530074 -122.791696 161 8042ft 138kts
13-Feb-19 22:18 46.491484 -122.781785 162 8039ft 142kts
13-Feb-19 22:19 46.487622 -122.780779 162 8041ft 142kts
13-Feb-19 22:20 46.487622 -122.780779 162 8041ft 142kts
13-Feb-19 22:21 46.483484 -122.779714 162 8042ft 142kts
13-Feb-19 22:22 46.444895 -122.769888 162 8042ft 142kts
13-Feb-19 22:23 46.405894 -122.759950 162 8041ft 142kts
13-Feb-19 22:24 46.366873 -122.750063 162 8042ft 142kts
13-Feb-19 22:25 46.327775 -122.740152 162 8041ft 142kts
13-Feb-19 22:26 46.288829 -122.730272 162 8042ft 142kts
13-Feb-19 22:27 46.249857 -122.720448 162 8039ft 142kts
13-Feb-19 22:28 46.211928 -122.711014 162 8040ft 133kts
13-Feb-19 22:29 46.175758 -122.701996 162 8040ft 131kts
13-Feb-19 22:30 46.139866 -122.692997 161 8039ft 131kts
13-Feb-19 22:31 46.103966 -122.683975 161 8043ft 131kts
13-Feb-19 22:32 46.068045 -122.674944 161 8043ft 131kts
13-Feb-19 22:33 46.032090 -122.665926 162 8042ft 132kts
13-Feb-19 22:34 45.996679 -122.687614 202 7844ft 142kts
13-Feb-19 22:35 45.963436 -122.714158 202 7337ft 133kts
13-Feb-19 22:36 45.932743 -122.738873 201 6826ft 115kts
13-Feb-19 22:37 45.906390 -122.760774 202 6322ft 106kts
13-Feb-19 22:38 45.881421 -122.781487 202 5824ft 102kts
13-Feb-19 22:39 45.856888 -122.801571 202 5325ft 100kts
13-Feb-19 22:40 45.832683 -122.821115 202 4827ft 99kts
13-Feb-19 22:41 45.808715 -122.840144 202 4326ft 100kts
13-Feb-19 22:42 45.783575 -122.859477 202 4060ft 104kts
13-Feb-19 22:43 45.756413 -122.879889 202 3926ft 116kts
13-Feb-19 22:44 45.727718 -122.878857 145 3440ft 111kts
13-Feb-19 22:45 45.700458 -122.862836 142 3223ft 94kts
13-Feb-19 22:46 45.687304 -122.834719 117 3235ft 86kts
13-Feb-19 22:47 45.674750 -122.802174 117 3233ft 98kts
13-Feb-19 22:48 45.659705 -122.763124 117 2698ft 125kts
13-Feb-19 22:49 45.642368 -122.718286 118 1981ft 130kts
13-Feb-19 22:50 45.624732 -122.672792 118 1265ft 130kts
13-Feb-19 22:51 45.607899 -122.627146 118 570ft 130kts
13-Feb-19 22:52 45.592421 -122.589874 113 28ft 55kts
13-Feb-19 22:53 45.590615 -122.585069 121 26ft 2kts
13-Feb-19 22:54 45.590316 -122.586770 271 26ft 0kts
13-Feb-19 22:55 45.590316 -122.586770 271 26ft 0kts
13-Feb-19 22:56 45.590316 -122.586770 271 26ft 0kts
13-Feb-19 22:57 45.589912 -122.586753 143 26ft 4kts
13-Feb-19 22:58 45.588719 -122.583328 121 26ft 3kts
13-Feb-19 22:59 45.587648 -122.584053 240 26ft 7kts
13-Feb-19 23:00 45.587653 -122.584092 325 26ft 0kts
13-Feb-19 23:01 45.587653 -122.584092 325 26ft 0kts
13-Feb-19 23:02 45.587653 -122.584092 325 26ft 0kts

Navigation Log

Ident Type
Flight plan parsing failed, navigation log unavailable